Time;durP1;ratioP1;P1;durP2;ratioP2;P2;SDS_P1;SDS_P2;PMS_P1;PMS_P2;Temp;Humidity;BMP_temperature;BMP_pressure;BME280_temperature;BME280_humidity;BME280_pressure;Samples;Min_cycle;Max_cycle;Signal;HPM_P1;HPM_P2
2022/09/07 00:01:24;;;;;;;;;48.67;41.33;;;;;17.25;100.00;99774.13;6285075;20;3597129;-53
2022/09/07 00:03:58;;;;;;;;;44.00;38.33;;;;;16.87;100.00;99769.34;6284149;20;2846185;-52
2022/09/07 00:06:28;;;;;;;;;49.67;41.00;;;;;16.86;100.00;99768.47;6318182;20;3589809;-53
2022/09/07 00:08:57;;;;;;;;;47.67;40.67;;;;;16.96;100.00;99770.41;6283765;20;3607581;-53
2022/09/07 00:11:26;;;;;;;;;42.33;38.00;;;;;17.04;100.00;99776.03;6317494;20;3583572;-53
2022/09/07 00:13:56;;;;;;;;;44.33;38.00;;;;;17.09;100.00;99771.91;6283734;20;2838862;-51
2022/09/07 00:16:30;;;;;;;;;47.00;40.33;;;;;16.91;100.00;99776.22;6318400;20;3606616;-53
2022/09/07 00:19:03;;;;;;;;;36.00;33.33;;;;;16.79;100.00;99777.28;6282491;20;2846218;-53
2022/09/07 00:21:32;;;;;;;;;47.00;40.67;;;;;16.78;100.00;99776.41;6318965;20;3596060;-49
2022/09/07 00:24:02;;;;;;;;;43.00;37.67;;;;;16.72;100.00;99768.78;6282445;20;2848310;-49
2022/09/07 00:26:31;;;;;;;;;43.67;37.00;;;;;16.60;100.00;99777.97;6318484;20;3609641;-53
2022/09/07 00:29:02;;;;;;;;;48.00;38.00;;;;;16.53;100.00;99776.75;6283959;20;3595084;-54
2022/09/07 00:31:32;;;;;;;;;46.33;40.67;;;;;16.72;100.00;99771.50;6283088;20;3588885;-54
2022/09/07 00:34:02;;;;;;;;;47.00;40.67;;;;;16.53;100.00;99763.22;6285764;20;3598655;-54
2022/09/07 00:36:30;;;;;;;;;44.00;38.00;;;;;16.50;100.00;99769.75;6287953;20;3582549;-51
2022/09/07 00:39:00;;;;;;;;;48.33;38.00;;;;;16.33;100.00;99767.63;6278289;20;3606529;-53
2022/09/07 00:41:29;;;;;;;;;52.67;42.33;;;;;16.32;100.00;99763.16;6317647;20;3603587;-54
2022/09/07 00:44:43;;;;;;;;;49.33;42.00;;;;;16.31;100.00;99762.31;6280221;20;2854511;-55
2022/09/07 00:48:03;;;;;;;;;50.00;39.67;;;;;16.21;100.00;99762.22;6316629;20;3602434;-53
2022/09/07 00:50:56;;;;;;;;;47.67;39.67;;;;;16.35;100.00;99766.50;6279366;20;2850304;-54
2022/09/07 00:53:52;;;;;;;;;52.00;42.67;;;;;16.26;100.00;99764.56;6313945;20;3588796;-52
2022/09/07 00:56:28;;;;;;;;;49.00;40.50;;;;;16.31;100.00;99756.03;6280638;20;2845070;-59
2022/09/07 00:58:59;;;;;;;;;49.33;41.67;;;;;16.14;100.00;99755.63;6279108;20;2839851;-58
2022/09/07 01:01:28;;;;;;;;;48.00;40.67;;;;;16.14;100.00;99762.88;6314820;20;3596066;-59
2022/09/07 01:04:00;;;;;;;;;50.50;42.00;;;;;16.23;100.00;99756.69;6283023;20;2845073;-59
2022/09/07 01:06:38;;;;;;;;;49.00;41.00;;;;;16.46;100.00;99765.59;6280796;20;3605495;-59
2022/09/07 01:09:14;;;;;;;;;52.67;41.67;;;;;16.40;100.00;99761.56;6312853;20;3592103;-59
2022/09/07 01:11:49;;;;;;;;;50.67;43.00;;;;;16.32;100.00;99764.03;6278701;20;3595173;-59
2022/09/07 01:14:28;;;;;;;;;50.33;42.67;;;;;16.30;100.00;99760.63;6316990;20;3585003;-59
2022/09/07 01:17:40;;;;;;;;;48.33;39.67;;;;;16.29;100.00;99748.03;6280901;20;2850936;-59
2022/09/07 01:20:49;;;;;;;;;53.67;43.33;;;;;15.96;100.00;99752.59;6308118;20;3610680;-59
2022/09/07 01:23:47;;;;;;;;;47.67;40.00;;;;;16.09;100.00;99752.44;6280647;20;2848201;-59
2022/09/07 01:26:53;;;;;;;;;46.67;39.33;;;;;16.37;100.00;99750.94;6313994;20;3591917;-59
2022/09/07 01:30:07;;;;;;;;;47.00;40.50;;;;;16.17;100.00;99749.09;6280844;20;2852475;-59
2022/09/07 01:33:10;;;;;;;;;47.67;39.33;;;;;16.04;100.00;99751.97;6277118;20;2846267;-59
2022/09/07 01:36:19;;;;;;;;;43.00;34.67;;;;;16.36;100.00;99757.38;6315668;20;3608586;-59
2022/09/07 01:38:56;;;;;;;;;45.00;37.67;;;;;16.36;100.00;99759.22;6277133;20;3592023;-59
2022/09/07 01:41:46;;;;;;;;;45.33;39.33;;;;;16.24;100.00;99762.00;6280714;20;3588742;-60
2022/09/07 01:45:00;;;;;;;;;45.00;37.67;;;;;16.42;100.00;99746.00;6310364;20;3583645;-59
2022/09/07 01:47:52;;;;;;;;;42.00;37.00;;;;;16.37;100.00;99740.13;6281061;20;3591929;-59
2022/09/07 01:50:46;;;;;;;;;46.33;39.00;;;;;16.36;100.00;99746.53;6279689;20;2845120;-59
2022/09/07 01:53:37;;;;;;;;;42.33;36.33;;;;;16.08;100.00;99728.16;6314686;20;3604564;-59
2022/09/07 01:56:34;;;;;;;;;45.00;38.00;;;;;15.75;100.00;99732.72;6282678;20;3591932;-60
2022/09/07 01:59:15;;;;;;;;;46.67;39.00;;;;;15.96;100.00;99730.94;6273811;20;2855602;-59
2022/09/07 02:01:51;;;;;;;;;45.33;39.00;;;;;15.93;100.00;99730.31;6317288;20;3577395;-59
2022/09/07 02:04:44;;;;;;;;;45.00;38.00;;;;;15.68;100.00;99732.31;6278778;20;2850284;-59
2022/09/07 02:07:28;;;;;;;;;48.00;39.67;;;;;15.72;100.00;99723.00;6278935;20;2851414;-59
2022/09/07 02:10:28;;;;;;;;;47.00;39.67;;;;;15.71;100.00;99732.09;6310455;20;3574223;-59
2022/09/07 02:13:23;;;;;;;;;48.00;40.00;;;;;15.69;100.00;99733.19;6276988;20;3604451;-60
2022/09/07 02:16:24;;;;;;;;;50.00;40.67;;;;;15.70;100.00;99732.22;6312755;20;3598163;-59
2022/09/07 02:19:08;;;;;;;;;45.00;37.33;;;;;15.91;100.00;99722.31;6281019;20;3588810;-59
2022/09/07 02:21:44;;;;;;;;;45.33;38.33;;;;;15.64;100.00;99721.84;6291448;20;3582594;-59
2022/09/07 02:24:24;;;;;;;;;43.00;35.50;;;;;15.54;100.00;99730.75;6277971;20;2837796;-59
2022/09/07 02:26:55;;;;;;;;;42.33;36.67;;;;;15.67;100.00;99724.34;6278825;20;2850326;-59
2022/09/07 02:29:24;;;;;;;;;41.33;36.33;;;;;16.00;100.00;99732.38;6313168;20;3588973;-60
2022/09/07 02:31:59;;;;;;;;;45.67;38.67;;;;;15.77;100.00;99730.72;6282645;20;2860833;-59
2022/09/07 02:34:27;;;;;;;;;45.00;38.67;;;;;15.86;100.00;99731.81;6315965;20;3590994;-59
2022/09/07 02:37:01;;;;;;;;;42.50;36.00;;;;;15.93;100.00;99724.88;6279723;20;2835964;-59
2022/09/07 02:39:30;;;;;;;;;46.33;39.67;;;;;15.70;100.00;99726.81;6275625;20;2848163;-59
2022/09/07 02:41:59;;;;;;;;;44.67;37.67;;;;;15.47;100.00;99713.28;6313681;20;3599383;-59
2022/09/07 02:44:34;;;;;;;;;42.33;36.33;;;;;15.37;100.00;99715.84;6281331;20;2844154;-58
2022/09/07 02:47:25;;;;;;;;;44.33;37.67;;;;;15.37;100.00;99712.28;6313496;20;3580565;-59
2022/09/07 02:50:36;;;;;;;;;40.50;36.00;;;;;15.62;100.00;99713.88;6275242;20;2835725;-59
2022/09/07 02:53:32;;;;;;;;;46.33;39.00;;;;;15.53;100.00;99712.78;6283668;20;3600352;-59
2022/09/07 02:56:52;;;;;;;;;42.67;36.33;;;;;15.31;100.00;99713.66;6283984;20;3601338;-59
2022/09/07 02:59:47;;;;;;;;;44.67;38.00;;;;;15.23;100.00;99709.84;6277633;20;2845270;-59
2022/09/07 03:02:33;;;;;;;;;41.00;34.50;;;;;15.43;100.00;99706.41;6309382;20;2849232;-59
2022/09/07 03:05:26;;;;;;;;;40.50;35.00;;;;;15.37;100.00;99706.88;6279055;20;2842787;-60
2022/09/07 03:08:13;;;;;;;;;45.00;37.67;;;;;15.61;100.00;99703.16;6276260;20;2855570;-59
2022/09/07 03:10:43;;;;;;;;;45.33;38.67;;;;;15.30;100.00;99705.69;6311208;20;3583580;-59
2022/09/07 03:13:28;;;;;;;;;45.00;36.00;;;;;15.11;100.00;99707.16;6274495;20;3613805;-60
2022/09/07 03:15:57;;;;;;;;;46.00;38.33;;;;;15.10;100.00;99696.47;6314044;20;3599342;-59
2022/09/07 03:18:27;;;;;;;;;46.00;36.33;;;;;14.98;100.00;99698.31;6282643;20;3586811;-59
2022/09/07 03:20:56;;;;;;;;;45.00;39.00;;;;;15.02;100.00;99704.31;6284683;20;3602345;-59
2022/09/07 03:23:25;;;;;;;;;46.67;39.67;;;;;15.17;100.00;99710.38;6286617;20;3583767;-59
2022/09/07 03:25:53;;;;;;;;;45.00;37.00;;;;;15.36;100.00;99705.19;6283238;20;2568029;-59
2022/09/07 03:28:22;;;;;;;;;42.00;37.00;;;;;15.20;100.00;99702.00;6282703;20;2853444;-59
2022/09/07 03:30:50;;;;;;;;;41.33;36.33;;;;;15.09;100.00;99700.16;6287889;20;3581605;-60
2022/09/07 03:33:20;;;;;;;;;44.00;37.00;;;;;14.89;100.00;99696.31;6286433;20;2854545;-59
2022/09/07 03:36:01;;;;;;;;;44.67;37.67;;;;;14.88;100.00;99705.44;6319090;20;3588942;-59
2022/09/07 03:38:30;;;;;;;;;43.67;38.00;;;;;14.97;100.00;99701.97;6279808;20;2855969;-59
2022/09/07 03:41:06;;;;;;;;;40.00;35.33;;;;;14.83;100.00;99702.22;6315911;20;3602417;-59
2022/09/07 03:43:35;;;;;;;;;45.00;37.67;;;;;14.73;100.00;99710.19;6284070;20;3608788;-59
2022/09/07 03:46:06;;;;;;;;;43.00;37.67;;;;;14.73;100.00;99706.63;6318177;20;3592958;-59
2022/09/07 03:48:40;;;;;;;;;44.33;38.33;;;;;14.67;100.00;99708.84;6284211;20;3593128;-59
2022/09/07 03:51:11;;;;;;;;;39.00;35.00;;;;;14.89;100.00;99716.09;6280401;20;2861843;-59
2022/09/07 03:53:45;;;;;;;;;37.67;34.67;;;;;14.94;100.00;99707.63;6318330;20;3597152;-59
2022/09/07 03:56:19;;;;;;;;;48.00;36.67;;;;;14.82;100.00;99711.31;6283834;20;3616985;-59
2022/09/07 03:58:50;;;;;;;;;40.00;35.00;;;;;15.00;100.00;99707.13;6315292;20;3598136;-60
2022/09/07 04:01:23;;;;;;;;;43.00;37.00;;;;;15.21;100.00;99711.81;6284231;20;2851324;-54
2022/09/07 04:03:58;;;;;;;;;43.33;37.00;;;;;14.94;100.00;99704.94;6284879;20;3605496;-54
2022/09/07 04:06:31;;;;;;;;;41.33;36.00;;;;;15.19;100.00;99717.34;6317216;20;3597100;-55
2022/09/07 04:09:09;;;;;;;;;44.00;36.67;;;;;15.03;100.00;99719.56;6278609;20;3614900;-51
2022/09/07 04:11:41;;;;;;;;;43.67;37.33;;;;;14.69;100.00;99715.00;6311665;20;3597207;-55
2022/09/07 04:14:11;;;;;;;;;42.67;36.00;;;;;14.57;100.00;99724.03;6279120;20;3593038;-54
2022/09/07 04:16:40;;;;;;;;;42.33;34.67;;;;;15.08;100.00;99722.75;6315674;20;3596052;-59
2022/09/07 04:19:11;;;;;;;;;42.00;36.67;;;;;15.01;100.00;99722.41;6281255;20;2853539;-52
2022/09/07 04:21:40;;;;;;;;;35.67;33.00;;;;;15.01;100.00;99717.00;6314134;20;3577309;-51
2022/09/07 04:24:09;;;;;;;;;40.50;35.50;;;;;15.11;100.00;99731.50;6281849;20;2848185;-50
2022/09/07 04:26:38;;;;;;;;;45.00;37.00;;;;;15.09;100.00;99736.16;6281291;20;2845208;-53
2022/09/07 04:29:08;;;;;;;;;44.33;36.67;;;;;15.09;100.00;99735.31;6278471;20;2857627;-53
2022/09/07 04:31:37;;;;;;;;;40.67;35.67;;;;;15.17;100.00;99738.25;6313612;20;3588802;-52
2022/09/07 04:34:07;;;;;;;;;44.50;35.50;;;;;14.89;100.00;99736.88;6282021;20;2842963;-55
2022/09/07 04:36:36;;;;;;;;;44.33;35.00;;;;;15.13;100.00;99732.22;6279293;20;2848297;-56
2022/09/07 04:39:05;;;;;;;;;45.00;37.67;;;;;15.19;100.00;99738.13;6313976;20;3609873;-54
2022/09/07 04:41:34;;;;;;;;;41.00;36.00;;;;;15.05;100.00;99734.69;6280675;20;2843179;-54
2022/09/07 04:44:04;;;;;;;;;40.00;35.00;;;;;15.28;100.00;99740.09;6284155;20;3585637;-52
2022/09/07 04:46:36;;;;;;;;;45.00;38.00;;;;;15.23;100.00;99732.34;6280616;20;2848274;-52
2022/09/07 04:49:09;;;;;;;;;42.33;36.33;;;;;15.03;100.00;99730.38;6311765;20;3587938;-51
2022/09/07 04:51:41;;;;;;;;;37.00;34.00;;;;;15.30;100.00;99739.00;6285492;20;3595021;-53
2022/09/07 04:54:11;;;;;;;;;43.50;38.00;;;;;15.43;100.00;99733.47;6283873;20;2854416;-50
2022/09/07 04:56:39;;;;;;;;;41.00;35.00;;;;;15.37;100.00;99733.94;6283105;20;2834620;-54
2022/09/07 04:59:09;;;;;;;;;43.33;36.33;;;;;15.36;100.00;99743.06;6281467;20;2856102;-52
2022/09/07 05:01:38;;;;;;;;;42.33;37.00;;;;;15.44;100.00;99734.31;6316310;20;3595071;-53
2022/09/07 05:04:08;;;;;;;;;41.00;35.00;;;;;15.54;100.00;99736.16;6283250;20;2867440;-54
2022/09/07 05:06:37;;;;;;;;;46.33;37.67;;;;;15.71;100.00;99739.34;6319287;20;3600410;-51
2022/09/07 05:09:06;;;;;;;;;44.33;37.00;;;;;15.61;100.00;99739.19;6280384;20;3594982;-55
2022/09/07 05:11:35;;;;;;;;;40.33;34.67;;;;;15.73;100.00;99737.38;6312890;20;3598240;-54
2022/09/07 05:14:04;;;;;;;;;40.00;35.50;;;;;15.79;100.00;99739.56;6282074;20;2838953;-53
2022/09/07 05:16:33;;;;;;;;;46.00;38.00;;;;;15.88;100.00;99738.84;6281644;20;2847342;-53
2022/09/07 05:19:04;;;;;;;;;43.67;37.00;;;;;15.78;100.00;99749.56;6311161;20;3598138;-53
2022/09/07 05:21:34;;;;;;;;;37.00;33.00;;;;;15.76;100.00;99742.53;6281405;20;2851386;-51
2022/09/07 05:24:04;;;;;;;;;44.67;37.67;;;;;16.07;100.00;99751.69;6280737;20;3584763;-55
2022/09/07 05:26:36;;;;;;;;;43.50;36.00;;;;;15.99;100.00;99749.63;6278159;20;2852522;-52
2022/09/07 05:29:06;;;;;;;;;43.00;38.00;;;;;16.09;100.00;99749.72;6279202;20;2837906;-52
2022/09/07 05:31:56;;;;;;;;;63.67;51.67;;;;;16.14;100.00;99754.72;6314424;20;3621095;-56
2022/09/07 05:34:25;;;;;;;;;46.67;40.33;;;;;16.37;100.00;99760.94;6285722;20;3598173;-53
2022/09/07 05:36:58;;;;;;;;;40.00;35.00;;;;;16.45;100.00;99762.00;6285224;20;3589959;-54
2022/09/07 05:39:27;;;;;;;;;37.00;34.00;;;;;16.55;100.00;99763.94;6280505;20;2850446;-54
2022/09/07 05:41:56;;;;;;;;;39.67;35.00;;;;;16.67;100.00;99762.91;6284661;20;3608654;-55
2022/09/07 05:44:25;;;;;;;;;33.33;30.00;;;;;16.83;100.00;99763.31;6283952;20;3585650;-55
2022/09/07 05:47:10;;;;;;;;;45.00;38.67;;;;;16.85;100.00;99766.78;6278651;20;2848410;-55
2022/09/07 05:49:40;;;;;;;;;38.00;34.50;;;;;16.86;100.00;99763.06;6313428;20;3618017;-54
2022/09/07 05:52:09;;;;;;;;;45.67;37.00;;;;;17.07;100.00;99760.34;6316020;20;3580466;-52
2022/09/07 05:54:38;;;;;;;;;41.00;36.33;;;;;17.89;100.00;99772.13;6285439;20;3586719;-50
2022/09/07 05:57:11;;;;;;;;;34.00;32.67;;;;;18.13;100.00;99777.16;6280165;20;3593005;-55
2022/09/07 05:59:40;;;;;;;;;40.67;33.00;;;;;18.16;100.00;99780.47;6316425;20;3615864;-56
2022/09/07 06:02:14;;;;;;;;;30.67;30.33;;;;;19.37;98.03;99780.94;6287422;20;3575225;-57
2022/09/07 06:04:43;;;;;;;;;28.00;26.33;;;;;21.79;86.17;99788.22;6284814;20;3592933;-55
2022/09/07 06:07:13;;;;;;;;;26.00;25.33;;;;;21.87;81.92;99793.72;6284817;20;3596215;-51
2022/09/07 06:09:50;;;;;;;;;31.67;29.33;;;;;22.06;82.05;99777.03;6283928;20;3590893;-50
2022/09/07 06:12:39;;;;;;;;;32.67;29.00;;;;;21.07;85.05;99777.56;6285326;20;3598280;-54
2022/09/07 06:15:13;;;;;;;;;25.33;25.33;;;;;23.74;73.67;99786.66;6283875;20;3591889;-57
2022/09/07 06:17:42;;;;;;;;;32.00;30.33;;;;;23.88;72.13;99791.41;6283838;20;3589872;-55
2022/09/07 06:20:10;;;;;;;;;29.67;26.00;;;;;23.07;75.45;99784.22;6281719;20;3595034;-52
2022/09/07 06:22:40;;;;;;;;;30.75;28.25;;;;;23.41;75.19;99789.47;6282866;20;3599266;-52
2022/09/07 06:25:09;;;;;;;;;23.00;22.00;;;;;24.78;69.66;99791.91;6314036;20;3588773;-54
2022/09/07 06:27:37;;;;;;;;;25.00;25.00;;;;;24.60;70.01;99793.09;6284992;20;3595027;-56
2022/09/07 06:30:07;;;;;;;;;28.67;26.33;;;;;24.45;69.78;99795.75;6281544;20;3588822;-55
2022/09/07 06:32:37;;;;;;;;;26.25;24.50;;;;;25.73;64.87;99794.13;6283725;20;3599230;-54
2022/09/07 06:35:09;;;;;;;;;23.33;23.33;;;;;25.19;66.77;99790.53;6310539;20;3593969;-52
2022/09/07 06:37:38;;;;;;;;;31.67;29.67;;;;;27.29;59.64;99812.03;6282080;20;3583604;-54
2022/09/07 06:40:09;;;;;;;;;26.67;25.00;;;;;27.34;58.51;99804.84;6283625;20;3598176;-58
2022/09/07 06:42:39;;;;;;;;;25.33;24.33;;;;;26.08;62.54;99797.16;6280458;20;3594053;-58
2022/09/07 06:45:09;;;;;;;;;24.67;24.67;;;;;21.64;79.98;99786.13;6282661;20;3604549;-55
2022/09/07 06:47:39;;;;;;;;;28.67;25.67;;;;;20.52;86.20;99780.47;6280140;20;3592011;-56
2022/09/07 06:50:09;;;;;;;;;23.67;22.33;;;;;20.29;88.51;99777.34;6281055;20;3583563;-56
2022/09/07 06:52:38;;;;;;;;;31.67;27.33;;;;;20.26;89.93;99773.06;6281831;20;3608566;-56
2022/09/07 06:55:27;;;;;;;;;29.33;29.00;;;;;20.18;90.34;99781.16;6281583;20;3584659;-56
2022/09/07 06:57:56;;;;;;;;;32.33;30.00;;;;;20.31;90.02;99776.19;6281070;20;3575399;-56
2022/09/07 07:00:25;;;;;;;;;25.33;23.67;;;;;20.49;90.20;99778.06;6273616;20;3598232;-56
2022/09/07 07:02:53;;;;;;;;;28.00;27.00;;;;;20.78;90.57;99778.69;6287714;20;3571138;-55
2022/09/07 07:05:22;;;;;;;;;27.67;25.67;;;;;21.02;88.27;99774.44;6285252;20;3593019;-56
2022/09/07 07:07:51;;;;;;;;;16.00;16.00;;;;;20.91;87.01;99782.88;6283864;20;3551288;-55
2022/09/07 07:10:19;;;;;;;;;26.33;25.33;;;;;20.71;89.13;99776.75;6286027;20;3585639;-57
2022/09/07 07:12:56;;;;;;;;;33.00;30.00;;;;;20.94;89.11;99777.97;6286001;20;3584609;-54
2022/09/07 07:15:29;;;;;;;;;34.00;29.00;;;;;21.02;88.73;99779.91;6286227;20;3574255;-55
2022/09/07 07:17:59;;;;;;;;;29.67;29.67;;;;;20.92;88.13;99796.38;6278873;20;2846177;-55
2022/09/07 07:20:47;;;;;;;;;26.33;25.33;;;;;20.78;87.04;99795.06;6316413;20;3594087;-55
2022/09/07 07:23:16;;;;;;;;;31.00;29.33;;;;;24.06;75.16;99801.25;6283426;20;3581706;-57
2022/09/07 07:25:44;;;;;;;;;29.00;28.00;;;;;22.26;82.53;99795.94;6286216;20;3587793;-58
2022/09/07 07:28:13;;;;;;;;;26.67;26.67;;;;;21.97;83.51;99797.19;6282740;20;3596148;-53
2022/09/07 07:31:06;;;;;;;;;32.67;31.67;;;;;21.79;84.52;99797.28;6279858;20;3591957;-53
2022/09/07 07:33:41;;;;;;;;;33.00;31.33;;;;;21.90;84.93;99798.84;6273458;20;3587893;-51
2022/09/07 07:36:16;;;;;;;;;27.00;27.00;;;;;22.34;83.80;99793.22;6284449;20;3571053;-52
2022/09/07 07:38:49;;;;;;;;;31.33;30.00;;;;;22.63;81.93;99794.63;6286218;20;3594019;-54
2022/09/07 07:41:33;;;;;;;;;29.00;26.00;;;;;22.45;81.83;99795.63;6283076;20;3597538;-51
2022/09/07 07:44:21;;;;;;;;;24.67;24.67;;;;;22.61;80.30;99799.41;6282086;20;3590865;-53
2022/09/07 07:46:50;;;;;;;;;30.67;29.67;;;;;22.56;81.05;99791.72;6283992;20;3583584;-51
2022/09/07 07:49:19;;;;;;;;;31.00;29.33;;;;;22.73;79.70;99801.66;6277095;20;3577476;-51
2022/09/07 07:51:48;;;;;;;;;34.33;30.00;;;;;22.98;78.85;99804.41;6284028;20;3602457;-54
2022/09/07 07:54:37;;;;;;;;;30.00;30.00;;;;;22.72;80.49;99801.81;6282766;20;3574238;-54
2022/09/07 07:57:06;;;;;;;;;32.33;28.67;;;;;23.29;78.30;99804.56;6286887;20;3583590;-51
2022/09/07 07:59:35;;;;;;;;;29.00;27.67;;;;;23.25;77.05;99802.34;6284204;20;3581728;-54
2022/09/07 08:02:08;;;;;;;;;32.00;30.00;;;;;23.07;77.84;99802.56;6283069;20;3598168;-54
2022/09/07 08:04:38;;;;;;;;;32.50;30.25;;;;;23.19;79.64;99798.41;6280894;20;3600280;-52
2022/09/07 08:07:08;;;;;;;;;35.33;31.00;;;;;23.37;78.66;99788.09;6319245;20;3587854;-58
2022/09/07 08:09:45;;;;;;;;;27.67;27.00;;;;;23.75;76.66;99787.50;6291702;20;3592057;-58
2022/09/07 08:12:18;;;;;;;;;26.67;26.67;;;;;23.90;76.29;99790.38;6283620;20;3570042;-55
2022/09/07 08:14:48;;;;;;;;;30.67;28.67;;;;;23.10;76.64;99794.00;6290905;20;3588561;-56
2022/09/07 08:17:17;;;;;;;;;27.00;26.00;;;;;23.51;77.95;99785.69;6282944;20;3602506;-59
2022/09/07 08:19:46;;;;;;;;;32.00;29.67;;;;;23.99;75.89;99783.84;6285221;20;3590913;-58
2022/09/07 08:22:15;;;;;;;;;31.00;29.33;;;;;23.66;78.00;99783.91;6285684;20;3583588;-58
2022/09/07 08:24:44;;;;;;;;;27.00;27.00;;;;;24.19;75.12;99785.06;6318620;20;3583577;-58
2022/09/07 08:27:17;;;;;;;;;23.67;23.67;;;;;23.66;75.75;99776.53;6319416;20;3588887;-57
2022/09/07 08:29:45;;;;;;;;;24.67;24.67;;;;;24.21;74.33;99783.00;6290207;20;3590903;-58
2022/09/07 08:32:14;;;;;;;;;28.33;27.00;;;;;24.28;73.41;99781.25;6288270;20;3592963;-58
2022/09/07 08:34:43;;;;;;;;;29.00;29.00;;;;;24.36;73.43;99769.38;6289001;20;2721598;-56
2022/09/07 08:37:14;;;;;;;;;24.43;24.43;;;;;24.86;71.44;99775.41;6303115;20;3579406;-58
2022/09/07 08:39:42;;;;;;;;;23.00;21.00;;;;;24.63;72.00;99770.75;6288958;20;3574230;-59
2022/09/07 08:42:36;;;;;;;;;26.75;25.25;;;;;24.77;72.57;99771.00;6287976;20;3602506;-57
2022/09/07 08:45:51;;;;;;;;;24.71;23.57;;;;;24.87;71.12;99780.69;6333696;20;3590881;-59
2022/09/07 08:48:31;;;;;;;;;28.00;28.00;;;;;25.27;72.83;99772.28;6285820;20;3578574;-58
2022/09/07 08:51:17;;;;;;;;;28.00;27.00;;;;;25.16;72.50;99777.19;6287706;20;3586694;-58
2022/09/07 08:53:52;;;;;;;;;28.00;25.50;;;;;25.09;72.25;99772.59;6284508;20;3597360;-56
2022/09/07 08:56:35;;;;;;;;;27.00;26.33;;;;;24.95;69.94;99783.34;6314102;20;3584671;-59
2022/09/07 08:59:29;;;;;;;;;29.33;26.00;;;;;25.24;70.89;99780.91;6309576;20;3587829;-59
2022/09/07 09:01:58;;;;;;;;;22.00;21.00;;;;;25.00;70.46;99771.81;6316030;20;3607551;-58
2022/09/07 09:04:50;;;;;;;;;26.14;25.14;;;;;25.20;69.27;99777.69;6335697;20;3592037;-58
2022/09/07 09:08:13;;;;;;;;;29.67;28.33;;;;;25.47;70.17;99773.44;6287506;20;3583575;-56
2022/09/07 09:11:47;;;;;;;;;27.00;25.33;;;;;25.53;69.33;99778.16;6285673;20;3598121;-56
2022/09/07 09:15:00;;;;;;;;;28.33;27.00;;;;;25.80;69.04;99773.03;6286528;20;3584656;-56
2022/09/07 09:18:04;;;;;;;;;30.00;27.00;;;;;25.94;70.17;99768.63;6287701;20;3585724;-59
2022/09/07 09:20:55;;;;;;;;;27.00;27.00;;;;;25.57;68.94;99767.66;6283874;20;3585708;-56
2022/09/07 09:23:37;;;;;;;;;24.33;23.00;;;;;26.45;67.55;99772.16;6314619;20;3588793;-55
2022/09/07 09:26:31;;;;;;;;;27.14;26.86;;;;;25.89;65.65;99771.94;6331653;20;3600676;-56
2022/09/07 09:29:18;;;;;;;;;22.75;22.00;;;;;26.48;66.03;99771.78;6283863;20;3598207;-59
2022/09/07 09:31:47;;;;;;;;;27.67;27.67;;;;;25.99;64.38;99777.16;6315661;20;3587739;-57
2022/09/07 09:34:20;;;;;;;;;25.67;25.67;;;;;26.45;64.05;99772.16;6318400;20;3588798;-58
2022/09/07 09:36:56;;;;;;;;;26.00;25.00;;;;;26.36;64.29;99761.50;6309315;20;3598129;-55
2022/09/07 09:39:31;;;;;;;;;24.00;23.00;;;;;26.71;63.24;99765.25;6286179;20;3602324;-56
2022/09/07 09:42:16;;;;;;;;;26.00;26.00;;;;;26.66;63.14;99762.25;6337466;20;3585650;-59
2022/09/07 09:44:44;;;;;;;;;21.00;21.00;;;;;26.44;63.26;99759.47;6287452;20;3577323;-54
2022/09/07 09:47:39;;;;;;;;;25.50;24.50;;;;;26.41;62.25;99754.34;6291035;20;1900276;-56
2022/09/07 09:50:25;;;;;;;;;25.00;25.00;;;;;27.01;63.19;99760.44;6337305;20;3589803;-56
2022/09/07 09:53:48;;;;;;;;;27.00;25.00;;;;;26.70;63.48;99758.06;6279939;20;3588754;-57
2022/09/07 09:56:18;;;;;;;;;28.00;26.00;;;;;26.76;61.76;99765.53;6282981;20;3580487;-57
2022/09/07 09:58:46;;;;;;;;;31.00;26.33;;;;;26.99;60.96;99767.19;6285444;20;3595058;-58
2022/09/07 10:01:38;;;;;;;;;27.00;24.14;;;;;27.22;61.35;99754.06;6305403;20;3580460;-59
2022/09/07 10:04:33;;;;;;;;;27.57;25.29;;;;;26.89;61.79;99754.63;6304451;20;3596053;-58
2022/09/07 10:07:20;;;;;;;;;28.00;26.33;;;;;27.10;61.50;99750.13;6283529;20;3576339;-58
2022/09/07 10:09:54;;;;;;;;;27.14;27.14;;;;;27.08;59.95;99755.00;6333514;20;3587716;-57
2022/09/07 10:12:31;;;;;;;;;34.75;29.50;;;;;26.97;60.44;99750.88;6288416;20;3600242;-56
2022/09/07 10:15:05;;;;;;;;;24.00;24.00;;;;;27.03;58.49;99752.81;6313808;20;3598127;-58
2022/09/07 10:17:41;;;;;;;;;28.67;26.67;;;;;27.40;60.38;99748.03;6281043;20;3585624;-57
2022/09/07 10:20:16;;;;;;;;;24.50;24.25;;;;;27.82;57.47;99748.09;6318999;20;3596142;-56
2022/09/07 10:22:53;;;;;;;;;24.29;24.29;;;;;27.99;56.83;99741.16;6333093;20;3594121;-58
2022/09/07 10:25:35;;;;;;;;;25.33;25.33;;;;;27.72;57.16;99740.16;6285722;20;3588789;-57
2022/09/07 10:28:11;;;;;;;;;24.00;24.00;;;;;28.21;56.27;99744.63;6282946;20;3591935;-57
2022/09/07 10:30:52;;;;;;;;;26.33;25.00;;;;;27.46;57.04;99746.38;6280535;20;3599198;-56
2022/09/07 10:34:45;;;;;;;;;23.67;23.33;;;;;27.40;56.95;99737.00;6281173;20;3598179;-53
2022/09/07 10:37:50;;;;;;;;;26.86;26.86;;;;;28.10;54.75;99739.72;6329786;20;3592967;-60
2022/09/07 10:40:51;;;;;;;;;28.33;27.00;;;;;27.22;55.22;99733.91;6280615;20;3588985;-62
2022/09/07 10:43:42;;;;;;;;;24.71;23.00;;;;;27.23;55.92;99739.22;6295308;20;3585759;-60
2022/09/07 10:47:08;;;;;;;;;24.50;23.00;;;;;27.29;57.47;99741.19;6286666;20;3597227;-59
2022/09/07 10:49:56;;;;;;;;;35.00;29.14;;;;;27.50;58.20;99731.97;6334398;20;3588796;-58
2022/09/07 10:53:11;;;;;;;;;26.25;23.25;;;;;27.79;56.06;99724.47;6284714;20;3589182;-58
2022/09/07 10:56:23;;;;;;;;;23.86;23.86;;;;;27.77;55.93;99727.44;6333685;20;3586884;-58
2022/09/07 10:59:53;;;;;;;;;24.00;22.67;;;;;27.99;55.72;99724.59;6283280;20;3582598;-58
2022/09/07 11:03:12;;;;;;;;;26.00;25.67;;;;;28.21;54.74;99723.38;6283887;20;3582570;-58
2022/09/07 11:06:18;;;;;;;;;22.43;22.43;;;;;28.17;54.93;99727.63;6302848;20;3584738;-58
2022/09/07 11:09:17;;;;;;;;;24.00;24.00;;;;;27.83;57.19;99713.91;6277992;20;3596159;-58
2022/09/07 11:11:53;;;;;;;;;24.00;22.00;;;;;28.87;53.02;99722.66;6283677;20;3591909;-59
2022/09/07 11:14:52;;;;;;;;;23.57;23.57;;;;;29.09;54.67;99715.00;6334765;20;3586841;-58
2022/09/07 11:17:27;;;;;;;;;25.29;24.14;;;;;29.28;53.32;99717.94;6298026;20;3600274;-58
2022/09/07 11:20:17;;;;;;;;;26.00;24.71;;;;;28.71;55.63;99705.66;6300663;20;3602462;-58
2022/09/07 11:23:42;;;;;;;;;23.57;22.43;;;;;29.10;53.32;99705.66;6300505;20;3581504;-59
2022/09/07 11:26:26;;;;;;;;;20.67;20.67;;;;;29.04;53.73;99700.09;6280937;20;3585642;-58
2022/09/07 11:29:49;;;;;;;;;24.29;24.29;;;;;28.36;53.24;99703.03;6299096;20;3600403;-57
2022/09/07 11:32:25;;;;;;;;;28.25;25.50;;;;;28.23;55.86;99701.94;6277803;20;3596211;-58
2022/09/07 11:35:30;;;;;;;;;24.75;23.63;;;;;28.40;55.56;99696.03;6331147;20;3606640;-58
2022/09/07 11:38:35;;;;;;;;;25.71;24.57;;;;;28.15;55.84;99687.50;6327530;20;3597261;-58
2022/09/07 11:41:37;;;;;;;;;23.00;23.00;;;;;28.58;54.50;99689.91;6300167;20;3604415;-58
2022/09/07 11:44:30;;;;;;;;;27.00;25.67;;;;;27.88;57.84;99678.25;6285474;20;3600245;-58
2022/09/07 11:47:37;;;;;;;;;28.00;24.67;;;;;27.99;56.99;99680.44;6284322;20;3608556;-56
2022/09/07 11:50:17;;;;;;;;;23.33;21.67;;;;;27.76;56.55;99676.06;6286245;20;3582514;-56
2022/09/07 11:53:06;;;;;;;;;26.67;25.00;;;;;27.48;57.23;99669.78;6285297;20;3588765;-58
2022/09/07 11:55:43;;;;;;;;;26.00;25.33;;;;;27.12;57.47;99671.69;6315280;20;3580510;-57